Metcalfe, Mississippi
Current Conditions -  °F | °C
As of 11:26 AM on Thursday 18 Dec 2014 (Local Time) from KGLH Reporting Station
Overcast Overcast  
Wind Chill: 44°   Ceiling: 3000
Heat Index: 47°   Visibility: 7mi
Dew Point: 42°   Wind: 6mph
Humidity: 83%   Direction: 120°ESE
Pressure: 30.21"   Gusts: NA
Location:  33.45°N, 91.01°W
Report Text: KGLH 181726Z AUTO 12005KT 7SM OVC030 08/06 A3021 RMK AO2 T00830056
Loading
Personal Weather Stations






























Interactive Weather Map New forecast layout! Learn more

10-Day Weather Forecast

Advertisements
Track Severe Weather on mobile